Time;durP1;ratioP1;P1;durP2;ratioP2;P2;SDS_P1;SDS_P2;PMS_P1;PMS_P2;Temp;Humidity;BMP_temperature;BMP_pressure;BME280_temperature;BME280_humidity;BME280_pressure;Samples;Min_cycle;Max_cycle;Signal;HPM_P1;HPM_P2
2022/07/17 00:02:18;;;;;;;0.35;0.20;;;16.80;92.20;;;;;;5004255;28;20030;-66
2022/07/17 00:04:45;;;;;;;1.52;0.40;;;16.80;91.60;;;;;;4999857;28;20556;-67
2022/07/17 00:07:12;;;;;;;0.38;0.30;;;17.00;91.20;;;;;;5002848;28;20335;-66
2022/07/17 00:09:39;;;;;;;0.57;0.30;;;17.10;91.10;;;;;;5001840;28;20014;-66
2022/07/17 00:12:06;;;;;;;0.32;0.32;;;17.20;90.90;;;;;;4998474;28;20471;-69
2022/07/17 00:14:34;;;;;;;0.98;0.30;;;17.40;90.60;;;;;;5000604;28;20030;-68
2022/07/17 00:17:01;;;;;;;2.40;0.68;;;17.50;90.50;;;;;;4998723;28;20061;-71
2022/07/17 00:19:28;;;;;;;2.28;0.50;;;17.60;90.10;;;;;;4998918;28;20563;-66
2022/07/17 00:21:55;;;;;;;1.05;0.38;;;17.80;89.50;;;;;;4998687;28;20034;-68
2022/07/17 00:24:23;;;;;;;0.38;0.30;;;17.90;88.40;;;;;;5006123;28;20060;-66
2022/07/17 00:26:51;;;;;;;0.65;0.40;;;18.00;88.70;;;;;;5003145;28;20068;-67
2022/07/17 00:29:19;;;;;;;1.25;0.50;;;18.10;87.90;;;;;;4998401;28;20112;-65
2022/07/17 00:31:46;;;;;;;0.93;0.50;;;18.20;88.10;;;;;;4999389;28;20026;-66
2022/07/17 00:34:13;;;;;;;1.50;1.13;;;18.30;87.70;;;;;;5006449;28;20141;-66
2022/07/17 00:36:40;;;;;;;1.50;0.90;;;18.40;86.60;;;;;;5001199;28;20045;-66
2022/07/17 00:39:08;;;;;;;2.20;1.60;;;18.50;86.80;;;;;;5001385;28;20034;-69
2022/07/17 00:41:35;;;;;;;3.90;1.42;;;18.60;87.10;;;;;;5002503;28;20029;-67
2022/07/17 00:44:07;;;;;;;2.30;0.30;;;18.80;85.10;;;;;;5002650;28;20384;-68
2022/07/17 00:46:35;;;;;;;0.85;0.50;;;18.80;83.70;;;;;;5001095;28;20029;-67
2022/07/17 00:49:02;;;;;;;0.80;0.28;;;18.90;84.10;;;;;;5000349;28;20516;-68
2022/07/17 00:51:30;;;;;;;2.63;0.40;;;19.10;83.70;;;;;;5002163;28;20093;-67
2022/07/17 00:53:59;;;;;;;1.30;0.93;;;19.20;84.30;;;;;;5002093;28;20400;-67
2022/07/17 00:56:28;;;;;;;3.15;0.68;;;19.30;83.90;;;;;;5005436;28;20033;-66
2022/07/17 00:58:56;;;;;;;1.90;1.70;;;19.40;83.40;;;;;;4998214;28;20166;-67
2022/07/17 01:01:23;;;;;;;2.28;0.52;;;19.50;83.00;;;;;;5001467;28;20435;-69
2022/07/17 01:03:50;;;;;;;2.08;0.68;;;19.60;82.60;;;;;;5003839;28;20087;-68
2022/07/17 01:06:17;;;;;;;1.15;0.45;;;19.60;82.00;;;;;;5003004;28;20062;-67
2022/07/17 01:08:44;;;;;;;3.30;2.63;;;19.70;81.90;;;;;;4998895;28;20025;-69
2022/07/17 01:11:11;;;;;;;13.43;8.60;;;19.80;81.70;;;;;;5000862;28;20551;-65
2022/07/17 01:13:38;;;;;;;3.28;1.80;;;19.90;81.70;;;;;;5003046;28;20042;-68
2022/07/17 01:16:06;;;;;;;3.45;1.80;;;20.00;80.60;;;;;;5000827;28;20452;-68
2022/07/17 01:18:34;;;;;;;5.38;2.50;;;20.10;80.70;;;;;;5001151;28;20100;-67
2022/07/17 01:21:07;;;;;;;6.72;4.38;;;20.30;80.40;;;;;;5001660;28;20036;-64
2022/07/17 01:23:35;;;;;;;0.63;0.40;;;20.30;80.40;;;;;;5004856;28;20075;-67
2022/07/17 01:26:02;;;;;;;2.25;0.47;;;20.40;79.00;;;;;;5002951;28;20025;-65
2022/07/17 01:28:30;;;;;;;2.50;0.85;;;20.60;79.10;;;;;;4997045;28;20026;-67
2022/07/17 01:30:58;;;;;;;1.63;1.00;;;20.80;77.40;;;;;;4999300;28;20049;-67
2022/07/17 01:33:25;;;;;;;1.70;0.60;;;21.00;73.80;;;;;;5003938;28;20030;-67
2022/07/17 01:35:52;;;;;;;6.07;0.47;;;21.00;69.80;;;;;;5004311;28;20440;-64
2022/07/17 01:38:19;;;;;;;2.67;0.40;;;21.00;67.20;;;;;;4999130;28;20485;-65
2022/07/17 01:40:49;;;;;;;4.85;0.52;;;21.10;66.10;;;;;;4994716;23;20057;-66
2022/07/17 01:43:18;;;;;;;1.17;0.35;;;21.20;66.50;;;;;;4993360;28;20022;-65
2022/07/17 01:45:45;;;;;;;1.02;0.40;;;21.40;65.40;;;;;;4998208;28;20033;-66
2022/07/17 01:48:22;;;;;;;1.52;0.30;;;21.30;64.60;;;;;;4987352;28;20469;-66
2022/07/17 01:50:49;;;;;;;2.20;0.50;;;21.20;64.30;;;;;;4995068;28;20065;-68
2022/07/17 01:53:16;;;;;;;1.13;0.32;;;21.30;63.10;;;;;;4997418;28;20026;-67
2022/07/17 01:55:43;;;;;;;1.67;0.75;;;21.30;62.20;;;;;;4994113;28;20014;-67
2022/07/17 01:58:10;;;;;;;1.50;0.90;;;21.30;62.00;;;;;;4998042;28;20492;-67
2022/07/17 02:00:37;;;;;;;1.40;0.40;;;21.40;63.40;;;;;;4977857;28;20026;-70
2022/07/17 02:03:05;;;;;;;5.60;0.55;;;21.40;61.30;;;;;;4990847;28;20397;-72
2022/07/17 02:05:32;;;;;;;3.90;0.70;;;21.40;60.70;;;;;;4997718;28;20095;-69
2022/07/17 02:07:59;;;;;;;3.20;0.55;;;21.50;61.20;;;;;;4978550;28;20030;-70
2022/07/17 02:10:27;;;;;;;0.82;0.30;;;21.40;58.80;;;;;;4994213;28;20162;-69
2022/07/17 02:12:54;;;;;;;3.85;0.60;;;21.30;59.40;;;;;;4990697;28;20109;-70
2022/07/17 02:15:21;;;;;;;0.75;0.30;;;21.10;60.00;;;;;;4985474;28;20030;-69
2022/07/17 02:17:48;;;;;;;2.38;0.82;;;21.30;59.60;;;;;;4975174;28;20030;-73
2022/07/17 02:20:15;;;;;;;1.92;0.57;;;21.50;59.70;;;;;;4974765;28;20250;-72
2022/07/17 02:22:42;;;;;;;1.52;0.43;;;21.40;59.40;;;;;;4979902;28;20084;-72
2022/07/17 02:25:11;;;;;;;1.40;0.30;;;21.50;59.90;;;;;;4981996;28;20030;-71
2022/07/17 02:27:38;;;;;;;0.70;0.35;;;21.60;59.40;;;;;;4980863;28;20041;-72
2022/07/17 02:30:09;;;;;;;0.32;0.32;;;21.60;59.60;;;;;;4980766;28;20452;-71
2022/07/17 02:32:37;;;;;;;1.85;0.28;;;21.50;58.60;;;;;;4993538;28;20022;-72
2022/07/17 02:35:05;;;;;;;3.97;0.93;;;21.40;58.20;;;;;;4990292;28;20037;-71
2022/07/17 02:37:32;;;;;;;2.67;0.43;;;21.40;58.60;;;;;;4977791;28;20026;-73
2022/07/17 02:39:59;;;;;;;1.90;0.40;;;21.70;58.00;;;;;;4991953;28;20038;-71
2022/07/17 02:42:29;;;;;;;1.40;0.40;;;21.70;57.20;;;;;;4993725;28;20524;-71
2022/07/17 02:44:57;;;;;;;1.98;0.30;;;21.80;57.10;;;;;;4974945;28;20503;-70
2022/07/17 02:47:31;;;;;;;1.40;0.60;;;21.90;56.50;;;;;;4992914;28;20019;-73
2022/07/17 02:50:01;;;;;;;1.75;0.40;;;21.70;55.60;;;;;;4995507;28;20018;-70
2022/07/17 02:52:29;;;;;;;0.52;0.17;;;21.60;56.20;;;;;;4995531;28;20153;-72
2022/07/17 02:54:56;;;;;;;1.75;0.43;;;21.70;56.10;;;;;;4997053;28;20026;-73
2022/07/17 02:57:23;;;;;;;1.58;0.93;;;21.80;56.00;;;;;;4993794;28;20038;-69
2022/07/17 02:59:50;;;;;;;1.25;0.50;;;21.70;55.20;;;;;;5000100;28;20507;-69
2022/07/17 03:02:17;;;;;;;1.50;0.50;;;21.70;53.90;;;;;;4981886;28;20030;-72
2022/07/17 03:04:44;;;;;;;0.73;0.38;;;21.50;54.60;;;;;;4986730;28;20061;-71
2022/07/17 03:07:11;;;;;;;3.28;0.60;;;21.40;54.80;;;;;;4986348;28;20081;-72
2022/07/17 03:09:38;;;;;;;0.63;0.32;;;21.50;55.40;;;;;;4990970;28;20022;-71
2022/07/17 03:12:06;;;;;;;5.13;0.50;;;21.40;55.50;;;;;;4989414;28;20054;-68
2022/07/17 03:14:33;;;;;;;2.22;0.50;;;21.40;55.30;;;;;;4990142;28;20026;-73
2022/07/17 03:17:00;;;;;;;2.88;0.60;;;21.40;54.10;;;;;;4988806;28;20097;-71
2022/07/17 03:19:27;;;;;;;1.60;0.32;;;21.50;53.50;;;;;;4971187;28;20386;-70
2022/07/17 03:21:54;;;;;;;4.13;0.43;;;21.60;53.00;;;;;;4987261;28;20026;-71
2022/07/17 03:24:21;;;;;;;0.73;0.43;;;21.60;53.10;;;;;;4988688;28;20057;-69
2022/07/17 03:26:49;;;;;;;1.63;0.30;;;21.50;52.80;;;;;;4988639;28;20031;-73
2022/07/17 03:29:19;;;;;;;0.95;0.40;;;21.50;53.20;;;;;;4989103;28;20049;-69
2022/07/17 03:31:47;;;;;;;0.77;0.40;;;21.60;53.80;;;;;;4988062;28;20377;-72
2022/07/17 03:34:14;;;;;;;1.20;0.60;;;21.60;52.60;;;;;;4991503;28;20026;-69
2022/07/17 03:36:42;;;;;;;1.45;0.45;;;21.50;52.90;;;;;;4968768;28;20042;-72
2022/07/17 03:39:09;;;;;;;0.70;0.70;;;21.40;51.80;;;;;;4985693;28;20033;-71
2022/07/17 03:41:36;;;;;;;0.20;0.20;;;21.60;53.50;;;;;;4986699;28;20049;-70
2022/07/17 03:44:03;;;;;;;0.77;0.20;;;21.80;53.80;;;;;;4985076;28;20030;-71
2022/07/17 03:46:30;;;;;;;1.70;0.30;;;21.90;52.90;;;;;;4986802;28;20030;-70
2022/07/17 03:48:58;;;;;;;2.08;0.35;;;21.70;51.80;;;;;;4985624;28;20034;-70
2022/07/17 03:51:25;;;;;;;1.30;0.68;;;21.60;53.10;;;;;;4988076;28;20385;-71
2022/07/17 03:53:52;;;;;;;1.23;0.80;;;21.70;52.60;;;;;;4989081;28;20179;-69
2022/07/17 03:56:20;;;;;;;1.17;0.43;;;21.50;52.00;;;;;;4987490;28;20052;-74
2022/07/17 03:58:47;;;;;;;0.80;0.20;;;21.40;52.20;;;;;;4297233;28;10000355;-70
2022/07/17 04:01:14;;;;;;;1.13;0.40;;;21.50;52.30;;;;;;4982955;28;20092;-72
2022/07/17 04:03:41;;;;;;;0.95;0.40;;;21.50;51.70;;;;;;4985164;28;20033;-69
2022/07/17 04:06:08;;;;;;;0.55;0.38;;;21.60;50.80;;;;;;4983303;28;20468;-70
2022/07/17 04:08:35;;;;;;;1.33;0.45;;;21.70;50.60;;;;;;4983795;28;20018;-68
2022/07/17 04:11:03;;;;;;;2.25;0.40;;;21.70;51.10;;;;;;4983149;28;20416;-67
2022/07/17 04:13:30;;;;;;;1.55;0.50;;;21.90;54.60;;;;;;4985577;28;20030;-70
2022/07/17 04:15:59;;;;;;;0.40;0.30;;;21.90;52.70;;;;;;4983182;28;20081;-69
2022/07/17 04:18:32;;;;;;;0.35;0.20;;;21.80;50.80;;;;;;4981820;28;20019;-69
2022/07/17 04:21:01;;;;;;;0.85;0.50;;;21.80;51.20;;;;;;4984191;28;20018;-69
2022/07/17 04:23:29;;;;;;;1.92;0.40;;;21.80;51.00;;;;;;4981986;28;20455;-69
2022/07/17 04:25:56;;;;;;;1.85;0.63;;;21.80;50.70;;;;;;4984726;28;20026;-68
2022/07/17 04:28:23;;;;;;;0.50;0.30;;;21.70;50.70;;;;;;4982583;28;20112;-67
2022/07/17 04:30:51;;;;;;;0.55;0.45;;;21.70;50.00;;;;;;4984963;28;20057;-69
2022/07/17 04:33:18;;;;;;;0.70;0.40;;;21.70;50.50;;;;;;4981243;28;20040;-70
2022/07/17 04:35:45;;;;;;;0.40;0.30;;;21.70;49.80;;;;;;4984474;28;20025;-69
2022/07/17 04:38:13;;;;;;;0.90;0.50;;;21.70;50.30;;;;;;4982236;28;20027;-68
2022/07/17 04:40:41;;;;;;;0.55;0.38;;;21.80;51.10;;;;;;4983908;28;20073;-65
2022/07/17 04:43:08;;;;;;;0.30;0.30;;;21.90;51.00;;;;;;4982558;28;20030;-66
2022/07/17 04:45:36;;;;;;;0.30;0.30;;;21.90;49.50;;;;;;4982178;28;20026;-69
2022/07/17 04:48:03;;;;;;;2.38;0.30;;;21.80;48.60;;;;;;4980331;28;20145;-68
2022/07/17 04:50:31;;;;;;;2.25;0.60;;;21.60;48.40;;;;;;4983768;28;20417;-66
2022/07/17 04:52:58;;;;;;;0.30;0.20;;;21.60;48.10;;;;;;4981771;28;20547;-64
2022/07/17 04:55:25;;;;;;;0.60;0.50;;;21.50;49.20;;;;;;4982794;28;20022;-63
2022/07/17 04:57:52;;;;;;;1.65;0.30;;;21.60;49.30;;;;;;4980748;28;20026;-63
2022/07/17 05:00:20;;;;;;;0.98;0.25;;;21.60;48.60;;;;;;4982055;28;20030;-66
2022/07/17 05:02:47;;;;;;;3.03;0.40;;;21.70;49.00;;;;;;4979980;28;20050;-64
2022/07/17 05:05:14;;;;;;;2.35;0.45;;;21.60;48.90;;;;;;4980998;28;20396;-66
2022/07/17 05:07:41;;;;;;;1.20;0.30;;;21.60;49.30;;;;;;4982723;28;20065;-65
2022/07/17 05:10:09;;;;;;;0.30;0.28;;;21.60;49.20;;;;;;4982107;28;20023;-66
2022/07/17 05:12:36;;;;;;;0.40;0.28;;;21.70;48.90;;;;;;4981527;28;20030;-64
2022/07/17 05:15:04;;;;;;;0.40;0.30;;;21.80;49.70;;;;;;4981322;28;20374;-67
2022/07/17 05:17:32;;;;;;;1.95;0.30;;;21.80;48.60;;;;;;4981767;28;20022;-65
2022/07/17 05:19:59;;;;;;;2.67;0.30;;;21.90;48.30;;;;;;4981733;28;20022;-65
2022/07/17 05:22:26;;;;;;;0.55;0.25;;;21.90;48.20;;;;;;4980891;28;20328;-67
2022/07/17 05:24:53;;;;;;;2.08;0.60;;;22.00;47.20;;;;;;4980483;28;20029;-67
2022/07/17 05:27:21;;;;;;;2.85;0.40;;;22.00;48.10;;;;;;4981381;28;20030;-67
2022/07/17 05:29:49;;;;;;;0.85;0.40;;;21.90;47.20;;;;;;4983882;28;20432;-66
2022/07/17 05:32:16;;;;;;;0.30;0.30;;;21.90;47.50;;;;;;4979659;28;20038;-66
2022/07/17 05:34:43;;;;;;;0.35;0.22;;;21.80;47.30;;;;;;4981120;28;20057;-69
2022/07/17 05:37:10;;;;;;;2.38;0.47;;;21.80;47.60;;;;;;4633547;28;10000609;-66
2022/07/17 05:39:39;;;;;;;2.28;0.35;;;21.90;47.00;;;;;;4978338;28;20042;-65
2022/07/17 05:42:07;;;;;;;0.30;0.30;;;21.90;47.20;;;;;;4980154;28;20054;-65
2022/07/17 05:44:34;;;;;;;0.63;0.30;;;22.10;47.60;;;;;;4978689;28;20038;-65
2022/07/17 05:47:01;;;;;;;1.23;0.35;;;22.10;47.70;;;;;;4981345;28;20165;-63
2022/07/17 05:49:28;;;;;;;0.57;0.30;;;22.00;48.00;;;;;;4979808;28;20027;-66
2022/07/17 05:51:55;;;;;;;0.38;0.22;;;22.00;47.40;;;;;;4981119;28;20581;-64
2022/07/17 05:54:22;;;;;;;0.70;0.22;;;21.90;47.00;;;;;;4978705;28;20611;-65
2022/07/17 05:56:49;;;;;;;0.88;0.15;;;21.30;48.70;;;;;;4978961;28;20141;-68
2022/07/17 05:59:17;;;;;;;0.32;0.32;;;20.80;49.50;;;;;;4977440;28;20200;-65
2022/07/17 06:01:44;;;;;;;1.27;0.20;;;20.40;49.70;;;;;;4960246;28;20393;-68
2022/07/17 06:04:11;;;;;;;0.93;0.30;;;20.10;50.30;;;;;;4977665;28;20037;-65
2022/07/17 06:06:38;;;;;;;0.80;0.40;;;19.90;50.90;;;;;;4964969;28;20081;-65
2022/07/17 06:09:05;;;;;;;2.92;0.80;;;19.80;50.60;;;;;;4977559;28;20022;-65
2022/07/17 06:11:33;;;;;;;1.75;1.20;;;19.70;51.60;;;;;;4981332;28;20054;-66
2022/07/17 06:14:00;;;;;;;1.02;0.60;;;19.50;52.10;;;;;;4980865;28;20033;-70
2022/07/17 06:16:27;;;;;;;1.00;0.55;;;19.50;51.20;;;;;;4982371;28;20039;-69
2022/07/17 06:18:54;;;;;;;0.55;0.25;;;19.50;51.20;;;;;;4979873;28;20030;-64
2022/07/17 06:21:21;;;;;;;2.05;0.40;;;19.60;50.60;;;;;;4981123;28;20057;-63
2022/07/17 06:23:49;;;;;;;1.70;0.40;;;19.50;50.90;;;;;;4976802;28;20077;-63
2022/07/17 06:26:16;;;;;;;1.40;0.45;;;19.50;50.70;;;;;;4978748;28;20453;-69
2022/07/17 06:28:43;;;;;;;2.35;0.60;;;19.40;51.90;;;;;;4979795;28;20014;-71
2022/07/17 06:31:10;;;;;;;1.08;0.88;;;19.20;53.70;;;;;;4960030;28;20022;-65
2022/07/17 06:33:38;;;;;;;0.90;0.80;;;19.10;53.60;;;;;;4977800;28;20026;-64
2022/07/17 06:36:05;;;;;;;1.48;0.65;;;19.00;53.60;;;;;;4979097;28;20103;-69
2022/07/17 06:38:33;;;;;;;1.35;0.63;;;19.00;54.10;;;;;;4963020;28;20027;-65
2022/07/17 06:41:02;;;;;;;1.17;0.60;;;18.80;54.20;;;;;;4980250;28;20490;-68
2022/07/17 06:43:29;;;;;;;1.33;0.50;;;18.80;54.30;;;;;;4980404;28;20475;-69
2022/07/17 06:45:56;;;;;;;0.98;0.60;;;18.70;53.50;;;;;;4982004;28;20014;-69
2022/07/17 06:48:24;;;;;;;0.93;0.47;;;18.70;53.60;;;;;;4984138;28;20027;-71
2022/07/17 06:50:51;;;;;;;2.90;0.80;;;18.60;54.50;;;;;;4984102;28;20105;-64
2022/07/17 06:53:18;;;;;;;1.50;0.40;;;18.60;54.10;;;;;;4984530;28;20027;-68
2022/07/17 06:55:45;;;;;;;1.13;0.90;;;18.50;54.30;;;;;;4981854;28;20100;-65
2022/07/17 06:58:13;;;;;;;0.45;0.30;;;18.30;55.70;;;;;;4984993;28;20026;-63
2022/07/17 07:00:41;;;;;;;0.60;0.40;;;18.10;55.60;;;;;;4984771;28;20037;-68
2022/07/17 07:03:08;;;;;;;1.55;1.08;;;17.90;57.40;;;;;;4982788;28;20030;-65
2022/07/17 07:05:35;;;;;;;1.60;0.60;;;17.70;56.50;;;;;;4984602;28;20529;-65
2022/07/17 07:08:03;;;;;;;0.50;0.30;;;17.60;57.40;;;;;;4984035;28;20076;-68
2022/07/17 07:10:30;;;;;;;1.90;0.68;;;17.50;57.60;;;;;;4985574;28;20321;-64
2022/07/17 07:12:57;;;;;;;1.50;0.60;;;17.40;57.30;;;;;;4986276;28;20030;-63
2022/07/17 07:15:24;;;;;;;1.27;0.45;;;17.30;57.40;;;;;;4986228;28;20030;-64
2022/07/17 07:17:51;;;;;;;1.85;0.32;;;17.30;57.80;;;;;;4983111;28;20034;-67
2022/07/17 07:20:18;;;;;;;1.05;0.52;;;17.10;59.00;;;;;;4984859;28;20026;-65
2022/07/17 07:22:46;;;;;;;6.88;1.02;;;17.00;59.30;;;;;;4984118;28;20033;-66
2022/07/17 07:25:13;;;;;;;2.85;0.70;;;16.90;57.90;;;;;;4985441;28;20026;-68
2022/07/17 07:27:40;;;;;;;0.75;0.60;;;16.80;57.80;;;;;;4982555;28;20429;-67
2022/07/17 07:30:09;;;;;;;2.30;0.60;;;16.80;57.30;;;;;;4985287;28;20010;-67
2022/07/17 07:32:40;;;;;;;1.70;0.75;;;16.80;57.60;;;;;;4983147;28;20477;-66
2022/07/17 07:35:08;;;;;;;0.95;0.65;;;16.70;57.90;;;;;;4984395;28;20038;-67
2022/07/17 07:37:36;;;;;;;2.53;0.77;;;16.60;58.30;;;;;;4984577;28;20245;-68
2022/07/17 07:40:04;;;;;;;1.20;0.85;;;16.50;58.60;;;;;;4983914;28;20302;-67
2022/07/17 07:42:31;;;;;;;2.70;0.80;;;16.30;59.00;;;;;;4984316;28;20393;-68
2022/07/17 07:44:58;;;;;;;1.85;0.77;;;16.30;59.40;;;;;;4981037;28;20799;-68
2022/07/17 07:47:25;;;;;;;5.32;3.60;;;16.30;59.40;;;;;;4986598;28;20018;-70
2022/07/17 07:49:52;;;;;;;3.67;2.10;;;16.30;59.60;;;;;;4985164;28;20022;-68
2022/07/17 07:52:19;;;;;;;2.30;1.50;;;16.20;59.60;;;;;;4985198;28;20037;-68
2022/07/17 07:54:46;;;;;;;4.78;2.55;;;16.10;59.50;;;;;;4983223;28;20022;-67
2022/07/17 07:57:14;;;;;;;6.40;3.60;;;16.00;60.30;;;;;;4988585;28;20022;-68
2022/07/17 07:59:41;;;;;;;4.55;2.88;;;16.00;60.60;;;;;;4984076;28;20205;-64
2022/07/17 08:02:09;;;;;;;2.63;1.08;;;15.90;60.40;;;;;;4985157;28;20030;-66
2022/07/17 08:04:36;;;;;;;2.50;0.90;;;15.90;60.80;;;;;;4976028;28;20030;-66
2022/07/17 08:07:04;;;;;;;3.47;0.80;;;16.00;60.20;;;;;;4985175;28;20018;-69
2022/07/17 08:09:31;;;;;;;1.10;0.60;;;15.90;60.80;;;;;;4985121;28;20093;-70
2022/07/17 08:11:58;;;;;;;2.15;0.70;;;15.90;60.50;;;;;;4983570;28;20435;-67
2022/07/17 08:14:25;;;;;;;3.08;0.50;;;15.90;60.60;;;;;;4982180;28;20026;-74
2022/07/17 08:16:52;;;;;;;1.17;0.70;;;15.90;60.10;;;;;;4983637;28;20117;-66
2022/07/17 08:19:19;;;;;;;1.35;0.60;;;15.90;60.90;;;;;;4983958;28;20023;-65
2022/07/17 08:21:46;;;;;;;1.08;0.60;;;15.90;60.80;;;;;;4984041;28;20030;-71
2022/07/17 08:24:14;;;;;;;1.02;0.52;;;15.80;60.90;;;;;;4983227;28;20102;-68
2022/07/17 08:26:41;;;;;;;3.60;2.28;;;15.80;61.00;;;;;;4966288;28;20400;-69
2022/07/17 08:29:08;;;;;;;2.63;1.55;;;15.60;61.60;;;;;;4981947;28;20022;-70
2022/07/17 08:31:35;;;;;;;2.00;1.52;;;15.60;61.80;;;;;;4983094;28;20034;-69
2022/07/17 08:34:03;;;;;;;2.60;0.85;;;15.50;62.10;;;;;;4982188;28;20501;-69
2022/07/17 08:36:30;;;;;;;5.18;0.75;;;15.50;62.20;;;;;;4982616;28;20401;-68
2022/07/17 08:38:57;;;;;;;0.90;0.50;;;15.50;62.40;;;;;;4982855;28;20092;-69
2022/07/17 08:41:25;;;;;;;1.00;0.55;;;15.60;61.60;;;;;;4984282;28;20105;-68
2022/07/17 08:43:54;;;;;;;1.25;0.77;;;15.70;62.10;;;;;;4980689;28;20035;-69
2022/07/17 08:46:25;;;;;;;1.88;1.15;;;15.70;62.00;;;;;;4982324;28;20023;-67
2022/07/17 08:49:00;;;;;;;1.50;1.17;;;15.60;62.20;;;;;;4980805;28;20083;-68
2022/07/17 08:51:28;;;;;;;4.53;3.00;;;15.60;62.10;;;;;;4985084;28;20018;-68
2022/07/17 08:53:56;;;;;;;2.20;0.70;;;15.60;62.50;;;;;;4983497;28;20356;-68
2022/07/17 08:56:24;;;;;;;1.83;0.90;;;15.60;62.90;;;;;;4984645;28;20515;-68
2022/07/17 08:58:51;;;;;;;1.13;0.80;;;15.60;62.70;;;;;;4983812;28;20041;-68
2022/07/17 09:01:20;;;;;;;3.05;1.00;;;15.60;62.60;;;;;;4983884;28;20037;-67
2022/07/17 09:04:06;;;;;;;2.05;0.80;;;15.60;62.60;;;;;;4981561;28;20034;-67
2022/07/17 09:06:34;;;;;;;1.35;0.60;;;15.70;62.30;;;;;;4979020;28;20081;-68
2022/07/17 09:09:05;;;;;;;2.75;0.90;;;15.70;62.40;;;;;;4979638;28;20113;-68
2022/07/17 09:11:45;;;;;;;0.82;0.50;;;15.60;62.90;;;;;;4979174;28;20018;-68
2022/07/17 09:14:13;;;;;;;2.53;0.90;;;15.60;62.90;;;;;;4978986;28;20050;-70
2022/07/17 09:16:54;;;;;;;2.85;0.60;;;15.50;62.70;;;;;;4980476;28;20033;-69
2022/07/17 09:19:31;;;;;;;0.88;0.65;;;15.60;63.20;;;;;;4978678;28;20030;-71
2022/07/17 09:22:12;;;;;;;1.05;0.50;;;15.50;63.70;;;;;;4979471;28;20608;-67
2022/07/17 09:24:51;;;;;;;1.02;0.70;;;15.60;63.80;;;;;;4978036;28;20030;-68
2022/07/17 09:27:32;;;;;;;1.70;1.33;;;15.60;63.70;;;;;;4980149;28;20027;-67
2022/07/17 09:30:11;;;;;;;2.80;1.05;;;15.50;63.70;;;;;;4978298;28;20048;-68
2022/07/17 09:32:42;;;;;;;0.65;0.50;;;15.50;63.90;;;;;;4959637;28;20037;-65
2022/07/17 09:35:11;;;;;;;1.13;0.60;;;15.50;63.80;;;;;;4975731;28;20154;-64
2022/07/17 09:37:39;;;;;;;0.73;0.50;;;15.50;64.20;;;;;;4974955;28;20035;-66
2022/07/17 09:43:00;;;;;;;1.45;0.40;;;15.50;63.80;;;;;;4978727;28;20080;-64
2022/07/17 09:45:27;;;;;;;1.33;0.50;;;15.60;64.20;;;;;;4979060;28;20069;-66
2022/07/17 09:47:55;;;;;;;3.15;0.82;;;15.60;64.00;;;;;;4977336;28;20488;-74
2022/07/17 09:50:23;;;;;;;1.10;0.60;;;15.60;64.30;;;;;;4978668;28;20026;-75
2022/07/17 09:52:56;;;;;;;3.60;0.60;;;15.70;64.50;;;;;;4978313;28;20030;-74
2022/07/17 09:55:28;;;;;;;1.15;0.43;;;15.70;64.90;;;;;;4976297;28;20489;-68
2022/07/17 09:57:55;;;;;;;;;;;15.70;65.10;;;;;;4978588;28;20527;-69
2022/07/17 10:00:23;;;;;;;1.08;0.60;;;15.60;65.10;;;;;;4976719;28;20324;-69
2022/07/17 10:02:50;;;;;;;1.95;0.50;;;15.60;64.80;;;;;;4978884;28;20085;-68
2022/07/17 10:05:18;;;;;;;1.55;0.80;;;15.50;65.30;;;;;;4978160;28;20576;-70
2022/07/17 10:07:46;;;;;;;2.42;0.60;;;15.50;65.60;;;;;;4962538;28;20549;-69
2022/07/17 10:10:16;;;;;;;1.42;0.70;;;15.50;66.00;;;;;;4975845;28;20091;-68
2022/07/17 10:12:45;;;;;;;2.88;0.68;;;15.50;66.00;;;;;;4978615;28;20027;-67
2022/07/17 10:15:12;;;;;;;0.70;0.50;;;15.60;66.40;;;;;;4977108;28;20512;-64
2022/07/17 10:17:39;;;;;;;1.23;0.80;;;15.50;66.50;;;;;;4978951;28;20430;-65
2022/07/17 10:20:07;;;;;;;2.50;0.60;;;15.50;66.90;;;;;;4979978;28;20524;-64
2022/07/17 10:22:45;;;;;;;1.02;0.65;;;15.60;67.00;;;;;;4981895;28;20136;-74
2022/07/17 10:25:17;;;;;;;0.63;0.52;;;15.60;67.30;;;;;;4981684;28;20081;-72
2022/07/17 10:27:53;;;;;;;1.70;0.47;;;15.60;67.50;;;;;;4982832;28;20057;-68
2022/07/17 10:30:26;;;;;;;1.45;0.52;;;15.60;67.60;;;;;;4982680;28;20425;-66
2022/07/17 10:32:58;;;;;;;;;;;15.60;67.80;;;;;;4982159;28;20600;-71
2022/07/17 10:35:26;;;;;;;1.67;0.70;;;15.50;68.20;;;;;;4981405;28;20942;-75
2022/07/17 10:37:58;;;;;;;3.60;0.88;;;15.50;68.50;;;;;;4963447;28;20113;-64
2022/07/17 10:40:31;;;;;;;3.13;0.70;;;15.50;68.70;;;;;;4980628;28;20046;-72
2022/07/17 10:43:01;;;;;;;2.75;1.42;;;15.60;68.60;;;;;;4978795;28;20121;-66
2022/07/17 10:45:39;;;;;;;2.63;0.63;;;15.60;69.30;;;;;;4979609;28;20027;-70
2022/07/17 10:48:16;;;;;;;1.92;1.15;;;15.50;69.30;;;;;;4981794;28;20027;-64
2022/07/17 10:50:48;;;;;;;1.60;0.82;;;15.50;69.50;;;;;;4982033;28;20157;-64
2022/07/17 10:53:35;;;;;;;1.38;0.90;;;15.50;69.90;;;;;;4982995;28;20026;-66
2022/07/17 10:56:05;;;;;;;2.33;0.90;;;15.40;70.20;;;;;;4981842;28;20058;-73
2022/07/17 10:58:38;;;;;;;2.53;1.27;;;15.50;70.60;;;;;;4981488;28;20026;-75
2022/07/17 11:01:13;;;;;;;1.90;1.08;;;15.40;70.50;;;;;;4981424;28;20503;-66
2022/07/17 11:03:40;;;;;;;2.20;1.10;;;15.30;71.00;;;;;;4981651;28;20105;-72
2022/07/17 11:06:14;;;;;;;2.30;1.05;;;15.40;70.90;;;;;;4981458;28;20877;-69
2022/07/17 11:08:47;;;;;;;2.08;0.93;;;15.30;71.20;;;;;;4982045;28;20030;-71
2022/07/17 11:11:16;;;;;;;3.97;3.00;;;15.30;71.60;;;;;;4982586;28;20093;-70
2022/07/17 11:13:43;;;;;;;10.43;6.20;;;15.30;71.30;;;;;;4981730;28;20493;-69
2022/07/17 11:16:12;;;;;;;6.18;3.45;;;15.30;72.20;;;;;;4981383;28;20042;-67
2022/07/17 11:18:47;;;;;;;3.95;2.17;;;15.30;71.80;;;;;;4981363;28;20520;-65
2022/07/17 11:21:14;;;;;;;3.70;2.38;;;15.30;71.80;;;;;;4980445;28;20447;-71
2022/07/17 11:23:52;;;;;;;1.88;0.80;;;15.30;72.10;;;;;;4979652;28;20119;-68
2022/07/17 11:26:22;;;;;;;2.53;1.70;;;15.30;72.30;;;;;;4980102;28;20045;-72
2022/07/17 11:28:51;;;;;;;2.10;1.10;;;15.10;73.30;;;;;;4980020;28;20555;-72
2022/07/17 11:31:27;;;;;;;5.25;1.08;;;15.20;72.60;;;;;;4981414;28;20504;-72
2022/07/17 11:33:56;;;;;;;1.73;0.88;;;15.20;73.20;;;;;;4982448;28;20054;-70
2022/07/17 11:36:37;;;;;;;2.28;0.98;;;15.10;73.80;;;;;;4982872;28;20081;-69
2022/07/17 11:39:18;;;;;;;4.63;1.20;;;15.10;73.70;;;;;;4983949;28;20062;-70
2022/07/17 11:41:50;;;;;;;1.65;0.60;;;15.00;74.00;;;;;;4981826;28;20042;-68
2022/07/17 11:44:20;;;;;;;3.70;2.40;;;15.10;74.00;;;;;;4981276;28;20034;-73
2022/07/17 11:46:50;;;;;;;5.68;2.08;;;15.10;74.00;;;;;;4981574;28;20041;-71
2022/07/17 11:49:29;;;;;;;1.95;1.10;;;15.00;74.70;;;;;;4983257;28;20392;-74
2022/07/17 11:52:08;;;;;;;2.35;1.35;;;15.00;75.00;;;;;;4965530;28;20101;-72
2022/07/17 11:54:54;;;;;;;1.38;0.70;;;14.90;75.20;;;;;;4981622;28;20093;-69
2022/07/17 11:57:23;;;;;;;0.65;0.30;;;14.90;75.30;;;;;;4982655;28;20105;-70
2022/07/17 11:59:52;;;;;;;1.08;0.60;;;14.90;75.40;;;;;;4981892;28;20551;-71
2022/07/17 12:02:22;;;;;;;1.95;0.82;;;14.80;76.30;;;;;;4982285;28;20041;-69
2022/07/17 12:04:58;;;;;;;1.52;0.63;;;14.70;76.40;;;;;;4981460;28;20427;-71
2022/07/17 12:07:38;;;;;;;2.10;1.27;;;14.70;76.60;;;;;;4980907;28;20018;-70
2022/07/17 12:10:21;;;;;;;1.40;0.98;;;14.60;77.10;;;;;;4981966;28;20089;-65
2022/07/17 12:12:58;;;;;;;1.58;0.60;;;14.60;78.00;;;;;;4982129;28;20045;-70
2022/07/17 12:15:46;;;;;;;0.55;0.50;;;14.50;78.20;;;;;;4981185;28;20057;-65
2022/07/17 12:18:27;;;;;;;1.00;0.60;;;14.40;78.80;;;;;;4982456;28;20424;-70
2022/07/17 12:20:57;;;;;;;1.05;0.60;;;14.40;79.50;;;;;;4983523;28;20160;-70
2022/07/17 12:23:34;;;;;;;1.65;0.60;;;14.40;79.70;;;;;;4981895;28;20499;-69
2022/07/17 12:26:11;;;;;;;1.13;0.70;;;14.40;80.20;;;;;;4981898;28;20157;-64
2022/07/17 12:28:38;;;;;;;2.17;0.50;;;14.30;80.70;;;;;;4981100;28;20104;-68
2022/07/17 12:31:11;;;;;;;1.88;0.63;;;14.30;81.20;;;;;;4982579;28;20986;-69
2022/07/17 12:33:39;;;;;;;1.67;0.85;;;14.30;81.40;;;;;;4983498;28;20339;-64
2022/07/17 12:36:06;;;;;;;0.90;0.60;;;14.20;81.60;;;;;;4981099;28;20207;-65
2022/07/17 12:38:33;;;;;;;1.80;0.50;;;14.20;82.20;;;;;;4982416;28;20026;-65
2022/07/17 12:41:00;;;;;;;1.98;0.70;;;14.10;82.20;;;;;;4980593;28;20404;-68
2022/07/17 12:43:28;;;;;;;1.08;0.60;;;14.10;82.80;;;;;;4980794;28;20022;-65
2022/07/17 12:45:55;;;;;;;1.75;0.68;;;14.10;83.10;;;;;;4982151;28;20084;-67
2022/07/17 12:48:22;;;;;;;1.40;0.73;;;14.10;83.20;;;;;;4981135;28;20049;-71
2022/07/17 12:50:49;;;;;;;0.98;0.50;;;14.10;83.50;;;;;;4962507;28;20034;-71
2022/07/17 12:53:16;;;;;;;1.13;0.75;;;14.10;83.50;;;;;;4982379;28;20382;-70
2022/07/17 12:55:43;;;;;;;1.08;0.70;;;14.20;83.40;;;;;;4981273;28;20440;-73
2022/07/17 12:58:10;;;;;;;3.22;0.77;;;14.20;83.60;;;;;;4982124;28;20034;-72
2022/07/17 13:00:38;;;;;;;1.00;0.70;;;14.20;83.50;;;;;;4979895;28;20026;-71